createdAt,value
2018-04-27T00:01:20.646Z,9.90
2018-04-27T00:03:50.118Z,8.15
2018-04-27T00:06:16.777Z,8.10
2018-04-27T00:08:43.427Z,9.65
2018-04-27T00:11:10.040Z,8.75
2018-04-27T00:13:37.562Z,8.15
2018-04-27T00:16:04.223Z,8.35
2018-04-27T00:18:31.036Z,9.35
2018-04-27T00:20:57.682Z,9.23
2018-04-27T00:23:28.518Z,8.52
2018-04-27T00:25:55.141Z,9.00
2018-04-27T00:28:21.758Z,7.65
2018-04-27T00:30:48.371Z,7.95
2018-04-27T00:33:14.999Z,8.30
2018-04-27T00:35:41.602Z,9.40
2018-04-27T00:38:08.883Z,8.88
2018-04-27T00:40:35.550Z,8.30
2018-04-27T00:43:02.172Z,7.12
2018-04-27T00:45:28.807Z,8.50
2018-04-27T00:47:55.436Z,7.82
2018-04-27T00:50:22.057Z,8.27
2018-04-27T00:52:54.655Z,8.15
2018-04-27T00:55:21.270Z,8.13
2018-04-27T00:57:47.886Z,9.50
2018-04-27T01:00:16.069Z,8.13
2018-04-27T01:02:43.150Z,9.10
2018-04-27T01:05:09.811Z,8.15
2018-04-27T01:07:36.423Z,7.57
2018-04-27T01:10:03.066Z,8.13
2018-04-27T01:12:29.759Z,8.80
2018-04-27T01:14:56.396Z,8.27
2018-04-27T01:17:23.718Z,8.20
2018-04-27T01:19:50.390Z,8.13
2018-04-27T01:22:21.026Z,7.80
2018-04-27T01:24:47.677Z,7.75
2018-04-27T01:27:14.282Z,7.72
2018-04-27T01:29:40.938Z,7.40
2018-04-27T01:32:07.547Z,8.30
2018-04-27T01:34:35.634Z,8.05
2018-04-27T01:37:02.744Z,8.05
2018-04-27T01:39:30.227Z,8.68
2018-04-27T01:41:56.861Z,8.65
2018-04-27T01:44:23.562Z,7.07
2018-04-27T01:46:50.829Z,8.15
2018-04-27T01:49:17.509Z,7.93
2018-04-27T01:51:44.130Z,6.97
2018-04-27T01:54:10.743Z,7.30
2018-04-27T01:56:37.374Z,7.03
2018-04-27T01:59:03.990Z,5.78
2018-04-27T02:01:30.951Z,7.70
2018-04-27T02:03:58.469Z,7.82
2018-04-27T02:06:28.963Z,6.97
2018-04-27T02:08:55.561Z,6.45
2018-04-27T02:11:22.219Z,6.30
2018-04-27T02:13:53.320Z,6.78
2018-04-27T02:16:19.937Z,7.30
2018-04-27T02:18:46.646Z,6.55
2018-04-27T02:21:13.254Z,7.90
2018-04-27T02:23:39.917Z,7.50
2018-04-27T02:26:06.537Z,6.80
2018-04-27T02:28:33.766Z,7.60
2018-04-27T02:31:00.780Z,7.57
2018-04-27T02:33:28.970Z,7.12
2018-04-27T02:35:55.630Z,7.30
2018-04-27T02:38:22.258Z,8.02
2018-04-27T02:40:48.890Z,7.82
2018-04-27T02:43:15.514Z,6.43
2018-04-27T02:45:42.157Z,6.85
2018-04-27T02:48:08.777Z,6.90
2018-04-27T02:50:35.403Z,7.45
2018-04-27T02:53:02.011Z,7.03
2018-04-27T02:55:28.650Z,6.90
2018-04-27T02:57:55.274Z,6.93
2018-04-27T03:00:21.912Z,7.40
2018-04-27T03:02:48.945Z,7.75
2018-04-27T03:05:15.638Z,6.37
2018-04-27T03:07:42.285Z,6.57
2018-04-27T03:10:09.066Z,6.53
2018-04-27T03:12:35.722Z,7.28
2018-04-27T03:15:02.343Z,6.00
2018-04-27T03:17:29.027Z,7.15
2018-04-27T03:19:55.746Z,6.82
2018-04-27T03:22:22.370Z,6.75
2018-04-27T03:24:49.044Z,7.35
2018-04-27T03:27:15.694Z,6.50
2018-04-27T03:29:42.498Z,7.00
2018-04-27T03:32:09.150Z,7.10
2018-04-27T03:34:40.588Z,6.30
2018-04-27T03:37:07.443Z,6.50
2018-04-27T03:39:34.734Z,6.43
2018-04-27T03:42:05.667Z,7.25
2018-04-27T03:44:32.312Z,6.97
2018-04-27T03:47:01.153Z,6.60
2018-04-27T03:49:31.176Z,5.80
2018-04-27T03:51:57.929Z,6.53
2018-04-27T03:54:24.655Z,6.82
2018-04-27T03:56:51.311Z,7.82
2018-04-27T03:59:23.849Z,6.85
2018-04-27T04:01:57.231Z,6.50
2018-04-27T04:04:33.386Z,6.32
2018-04-27T04:07:01.011Z,7.07
2018-04-27T04:09:27.785Z,6.22
2018-04-27T04:11:54.429Z,6.37
2018-04-27T04:14:21.089Z,6.28
2018-04-27T04:16:47.726Z,6.20
2018-04-27T04:19:14.378Z,6.93
2018-04-27T04:21:41.038Z,5.95
2018-04-27T04:24:07.654Z,6.37
2018-04-27T04:26:34.313Z,7.35
2018-04-27T04:29:00.953Z,6.45
2018-04-27T04:31:27.598Z,7.28
2018-04-27T04:33:54.282Z,5.57
2018-04-27T04:36:20.941Z,6.03
2018-04-27T04:38:47.578Z,5.70
2018-04-27T04:41:14.203Z,6.20
2018-04-27T04:43:40.871Z,6.82
2018-04-27T04:46:07.527Z,5.75
2018-04-27T04:48:34.155Z,6.82
2018-04-27T04:51:00.802Z,6.57
2018-04-27T04:53:27.482Z,6.45
2018-04-27T04:55:54.943Z,5.93
2018-04-27T04:58:21.587Z,6.68
2018-04-27T05:00:48.230Z,5.30
2018-04-27T05:03:14.858Z,5.50
2018-04-27T05:05:45.775Z,5.62
2018-04-27T05:08:16.162Z,6.85
2018-04-27T05:10:45.252Z,6.62
2018-04-27T05:13:12.378Z,6.20
2018-04-27T05:15:39.046Z,5.37
2018-04-27T05:18:11.569Z,5.62
2018-04-27T05:20:42.061Z,5.10
2018-04-27T05:23:08.723Z,6.40
2018-04-27T05:25:35.343Z,5.35
2018-04-27T05:28:03.017Z,5.60
2018-04-27T05:30:29.634Z,5.50
2018-04-27T05:33:02.107Z,4.95
2018-04-27T05:35:28.810Z,4.20
2018-04-27T05:37:55.433Z,4.45
2018-04-27T05:40:22.094Z,5.28
2018-04-27T05:42:49.330Z,5.70
2018-04-27T05:45:15.981Z,5.00
2018-04-27T05:47:42.615Z,3.90
2018-04-27T05:50:10.251Z,4.95
2018-04-27T05:52:36.914Z,4.53
2018-04-27T05:55:07.635Z,4.40
2018-04-27T05:57:34.272Z,4.55
2018-04-27T06:00:00.902Z,4.20
2018-04-27T06:02:27.501Z,4.30
2018-04-27T06:04:54.139Z,4.00
2018-04-27T06:07:20.873Z,3.60
2018-04-27T06:09:47.883Z,4.20
2018-04-27T06:12:14.530Z,3.67
2018-04-27T06:14:41.218Z,4.30
2018-04-27T06:17:07.828Z,4.40
2018-04-27T06:19:34.627Z,3.83
2018-04-27T06:22:01.246Z,3.78
2018-04-27T06:24:27.861Z,3.90
2018-04-27T06:26:54.495Z,3.55
2018-04-27T06:29:21.129Z,3.70
2018-04-27T06:31:47.845Z,3.58
2018-04-27T06:34:14.399Z,3.80
2018-04-27T06:36:41.033Z,3.70
2018-04-27T06:39:07.654Z,3.30
2018-04-27T06:41:34.297Z,3.50
2018-04-27T06:44:00.927Z,3.40
2018-04-27T06:46:27.582Z,3.45
2018-04-27T06:48:54.229Z,20.40
2018-04-27T06:51:20.843Z,7.70
2018-04-27T06:53:47.492Z,23.40
2018-04-27T06:56:14.103Z,9.30
2018-04-27T06:58:40.725Z,11.90
2018-04-27T07:01:07.334Z,10.53
2018-04-27T07:03:33.974Z,31.13
2018-04-27T07:06:00.586Z,8.50
2018-04-27T07:08:27.198Z,6.30
2018-04-27T07:10:53.861Z,7.13
2018-04-27T07:13:20.486Z,4.63
2018-04-27T07:15:47.125Z,3.00
2018-04-27T07:18:13.761Z,3.43
2018-04-27T07:20:40.389Z,3.60
2018-04-27T07:23:07.028Z,3.23
2018-04-27T07:25:33.646Z,3.43
2018-04-27T07:28:00.283Z,3.20
2018-04-27T07:30:26.894Z,3.07
2018-04-27T07:32:53.535Z,3.10
2018-04-27T07:35:20.147Z,3.30
2018-04-27T07:37:46.759Z,3.37
2018-04-27T07:40:13.382Z,2.90
2018-04-27T07:42:40.001Z,3.50
2018-04-27T07:45:06.634Z,3.30
2018-04-27T07:47:33.243Z,2.90
2018-04-27T07:49:59.853Z,3.67
2018-04-27T07:52:26.489Z,2.40
2018-04-27T07:54:53.094Z,2.50
2018-04-27T07:57:19.742Z,2.83
2018-04-27T07:59:46.478Z,2.47
2018-04-27T08:02:13.155Z,2.90
2018-04-27T08:04:39.760Z,2.40
2018-04-27T08:07:06.402Z,2.58
2018-04-27T08:09:33.048Z,2.50
2018-04-27T08:11:59.690Z,2.65
2018-04-27T08:14:26.306Z,2.70
2018-04-27T08:16:52.954Z,2.65
2018-04-27T08:19:19.578Z,2.70
2018-04-27T08:21:46.205Z,2.70
2018-04-27T08:24:12.839Z,2.37
2018-04-27T08:26:39.457Z,2.60
2018-04-27T08:29:06.090Z,2.62
2018-04-27T08:31:32.714Z,2.03
2018-04-27T08:33:59.342Z,2.83
2018-04-27T08:36:25.962Z,2.33
2018-04-27T08:38:52.590Z,2.50
2018-04-27T08:41:19.213Z,2.25
2018-04-27T08:43:45.864Z,2.00
2018-04-27T08:46:12.474Z,3.25
2018-04-27T08:48:39.114Z,2.90
2018-04-27T08:51:05.732Z,3.08
2018-04-27T08:53:32.366Z,2.50
2018-04-27T08:55:58.994Z,2.33
2018-04-27T08:58:25.615Z,2.53
2018-04-27T09:00:52.241Z,2.50
2018-04-27T09:03:18.868Z,2.33
2018-04-27T09:05:45.507Z,2.20
2018-04-27T09:08:12.121Z,2.40
2018-04-27T09:10:38.753Z,2.05
2018-04-27T09:13:05.381Z,2.25
2018-04-27T09:15:32.010Z,2.30
2018-04-27T09:17:58.622Z,2.22
2018-04-27T09:20:25.318Z,2.55
2018-04-27T09:22:51.942Z,2.28
2018-04-27T09:25:18.593Z,2.30
2018-04-27T09:27:45.251Z,2.12
2018-04-27T09:30:11.884Z,2.20
2018-04-27T09:32:38.497Z,2.45
2018-04-27T09:35:05.134Z,2.37
2018-04-27T09:37:31.755Z,1.80
2018-04-27T09:39:58.383Z,1.80
2018-04-27T09:42:25.035Z,2.97
2018-04-27T09:44:51.672Z,2.30
2018-04-27T09:47:18.454Z,1.80
2018-04-27T09:49:45.069Z,2.25
2018-04-27T09:52:11.739Z,1.80
2018-04-27T09:54:38.354Z,2.17
2018-04-27T09:57:05.057Z,2.50
2018-04-27T09:59:31.682Z,2.10
2018-04-27T10:01:58.311Z,2.20
2018-04-27T10:04:24.932Z,2.10
2018-04-27T10:06:51.569Z,2.03
2018-04-27T10:09:18.174Z,2.00
2018-04-27T10:11:44.809Z,2.80
2018-04-27T10:14:11.431Z,2.00
2018-04-27T10:16:38.059Z,1.90
2018-04-27T10:19:04.695Z,2.20
2018-04-27T10:21:31.346Z,2.03
2018-04-27T10:23:57.961Z,2.28
2018-04-27T10:26:24.610Z,2.22
2018-04-27T10:28:51.247Z,2.30
2018-04-27T10:31:17.877Z,2.23
2018-04-27T10:33:44.518Z,3.05
2018-04-27T10:36:11.135Z,2.50
2018-04-27T10:38:38.644Z,2.50
2018-04-27T10:41:05.258Z,2.37
2018-04-27T10:43:31.897Z,2.10
2018-04-27T10:45:58.517Z,1.97
2018-04-27T10:48:25.175Z,2.50
2018-04-27T10:50:51.794Z,2.35
2018-04-27T10:53:18.438Z,2.33
2018-04-27T10:55:45.054Z,2.17
2018-04-27T10:58:11.691Z,2.42
2018-04-27T11:00:38.335Z,2.40
2018-04-27T11:03:04.977Z,2.47
2018-04-27T11:05:31.661Z,2.50
2018-04-27T11:07:58.303Z,2.50
2018-04-27T11:10:24.910Z,1.87
2018-04-27T11:12:51.527Z,2.30
2018-04-27T11:15:18.164Z,2.60
2018-04-27T11:17:44.895Z,2.90
2018-04-27T11:20:11.673Z,2.50
2018-04-27T11:22:38.307Z,2.20
2018-04-27T11:25:04.968Z,2.28
2018-04-27T11:27:31.587Z,2.47
2018-04-27T11:29:58.230Z,2.15
2018-04-27T11:32:24.834Z,1.97
2018-04-27T11:34:51.456Z,2.47
2018-04-27T11:37:18.072Z,2.20
2018-04-27T11:39:44.713Z,1.90
2018-04-27T11:42:11.319Z,2.37
2018-04-27T11:44:37.962Z,1.90
2018-04-27T11:47:04.594Z,1.97
2018-04-27T11:49:31.207Z,2.23
2018-04-27T11:51:57.849Z,2.43
2018-04-27T11:54:24.474Z,3.47
2018-04-27T11:56:51.094Z,2.33
2018-04-27T11:59:17.717Z,2.50
2018-04-27T12:01:44.383Z,2.10
2018-04-27T12:04:10.961Z,1.70
2018-04-27T12:06:37.598Z,2.57
2018-04-27T12:09:04.235Z,2.20
2018-04-27T12:11:30.875Z,2.00
2018-04-27T12:13:57.501Z,1.97
2018-04-27T12:16:24.115Z,2.13
2018-04-27T12:18:50.753Z,1.80
2018-04-27T12:21:17.358Z,1.80
2018-04-27T12:23:43.970Z,1.70
2018-04-27T12:26:10.607Z,4.23
2018-04-27T12:28:37.311Z,3.50
2018-04-27T12:31:03.957Z,1.73
2018-04-27T12:33:31.241Z,1.80
2018-04-27T12:35:57.863Z,2.72
2018-04-27T12:38:24.489Z,4.17
2018-04-27T12:40:51.119Z,12.05
2018-04-27T12:43:17.759Z,2.03
2018-04-27T12:45:44.361Z,1.60
2018-04-27T12:48:11.038Z,2.12
2018-04-27T12:50:37.675Z,2.10
2018-04-27T12:53:04.428Z,2.17
2018-04-27T12:55:31.072Z,2.75
2018-04-27T12:57:57.720Z,2.20
2018-04-27T13:00:24.416Z,2.00
2018-04-27T13:02:51.113Z,2.20
2018-04-27T13:05:17.742Z,2.13
2018-04-27T13:07:44.365Z,1.90
2018-04-27T13:10:11.035Z,1.97
2018-04-27T13:12:38.235Z,2.10
2018-04-27T13:15:04.921Z,2.20
2018-04-27T13:17:31.525Z,7.20
2018-04-27T13:19:58.182Z,2.57
2018-04-27T13:22:24.846Z,2.60
2018-04-27T13:24:51.990Z,2.13
2018-04-27T13:27:18.612Z,2.03
2018-04-27T13:29:45.241Z,2.00
2018-04-27T13:32:11.888Z,2.03
2018-04-27T13:34:38.508Z,2.37
2018-04-27T13:37:05.167Z,2.17
2018-04-27T13:39:31.801Z,1.95
2018-04-27T13:41:58.480Z,2.25
2018-04-27T13:44:25.095Z,1.85
2018-04-27T13:46:51.768Z,2.75
2018-04-27T13:49:18.419Z,1.70
2018-04-27T13:51:49.320Z,2.50
2018-04-27T13:54:15.939Z,2.07
2018-04-27T13:56:42.574Z,1.97
2018-04-27T13:59:09.203Z,2.30
2018-04-27T14:01:39.558Z,2.25
2018-04-27T14:04:06.193Z,1.98
2018-04-27T14:06:32.834Z,2.50
2018-04-27T14:08:59.493Z,2.22
2018-04-27T14:11:26.111Z,2.07
2018-04-27T14:13:52.799Z,2.30
2018-04-27T14:16:19.508Z,1.73
2018-04-27T14:18:46.097Z,2.20
2018-04-27T14:21:12.728Z,1.98
2018-04-27T14:23:39.355Z,1.90
2018-04-27T14:26:05.969Z,2.45
2018-04-27T14:28:32.599Z,1.67
2018-04-27T14:30:59.246Z,2.70
2018-04-27T14:33:25.895Z,1.92
2018-04-27T14:35:52.503Z,1.87
2018-04-27T14:38:19.137Z,1.70
2018-04-27T14:40:45.775Z,2.10
2018-04-27T14:43:12.401Z,1.30
2018-04-27T14:45:39.022Z,2.10
2018-04-27T14:48:05.662Z,1.95
2018-04-27T14:50:32.303Z,2.15
2018-04-27T14:52:58.918Z,1.60
2018-04-27T14:55:25.559Z,1.87
2018-04-27T14:57:52.197Z,1.83
2018-04-27T15:00:18.839Z,2.05
2018-04-27T15:02:45.482Z,2.00
2018-04-27T15:05:12.114Z,2.10
2018-04-27T15:07:38.736Z,2.00
2018-04-27T15:10:05.363Z,2.20
2018-04-27T15:12:31.993Z,2.70
2018-04-27T15:14:58.657Z,2.27
2018-04-27T15:17:25.292Z,1.73
2018-04-27T15:19:52.547Z,1.93
2018-04-27T15:22:19.152Z,2.47
2018-04-27T15:24:45.779Z,2.23
2018-04-27T15:27:12.408Z,1.83
2018-04-27T15:29:39.013Z,2.00
2018-04-27T15:32:06.536Z,2.00
2018-04-27T15:34:33.155Z,2.10
2018-04-27T15:36:59.796Z,2.07
2018-04-27T15:39:26.428Z,2.00
2018-04-27T15:41:53.051Z,1.93
2018-04-27T15:44:19.688Z,2.78
2018-04-27T15:46:46.299Z,2.00
2018-04-27T15:49:12.926Z,2.00
2018-04-27T15:51:39.570Z,2.28
2018-04-27T15:54:06.225Z,2.30
2018-04-27T15:56:32.874Z,1.80
2018-04-27T15:58:59.495Z,1.83
2018-04-27T16:01:26.140Z,1.93
2018-04-27T16:03:52.798Z,1.87
2018-04-27T16:06:19.425Z,1.70
2018-04-27T16:08:46.164Z,2.92
2018-04-27T16:11:12.799Z,2.45
2018-04-27T16:13:45.270Z,2.30
2018-04-27T16:16:11.891Z,2.08
2018-04-27T16:18:38.510Z,3.10
2018-04-27T16:21:05.153Z,2.03
2018-04-27T16:23:31.782Z,2.40
2018-04-27T16:25:58.399Z,2.07
2018-04-27T16:28:25.035Z,1.80
2018-04-27T16:30:51.669Z,2.00
2018-04-27T16:33:18.306Z,1.90
2018-04-27T16:35:44.997Z,2.20
2018-04-27T16:38:11.607Z,2.00
2018-04-27T16:40:38.250Z,2.73
2018-04-27T16:43:04.916Z,2.35
2018-04-27T16:45:31.700Z,2.20
2018-04-27T16:47:58.334Z,2.87
2018-04-27T16:50:24.977Z,2.30
2018-04-27T16:52:51.602Z,2.37
2018-04-27T16:55:18.262Z,2.45
2018-04-27T16:57:44.886Z,2.10
2018-04-27T17:00:11.559Z,1.73
2018-04-27T17:02:38.164Z,2.20
2018-04-27T17:05:04.839Z,2.17
2018-04-27T17:07:31.463Z,1.93
2018-04-27T17:09:58.113Z,1.90
2018-04-27T17:12:24.747Z,2.10
2018-04-27T17:14:51.427Z,3.87
2018-04-27T17:17:18.055Z,2.50
2018-04-27T17:19:45.377Z,2.08
2018-04-27T17:22:12.022Z,2.55
2018-04-27T17:24:38.677Z,3.45
2018-04-27T17:27:05.375Z,1.90
2018-04-27T17:29:32.875Z,1.90
2018-04-27T17:31:59.524Z,2.03
2018-04-27T17:34:27.115Z,1.85
2018-04-27T17:36:53.814Z,2.45
2018-04-27T17:39:20.411Z,2.47
2018-04-27T17:41:47.069Z,2.25
2018-04-27T17:44:13.690Z,2.03
2018-04-27T17:46:40.336Z,3.53
2018-04-27T17:49:07.043Z,2.53
2018-04-27T17:51:33.738Z,2.40
2018-04-27T17:54:00.358Z,2.20
2018-04-27T17:56:26.998Z,4.40
2018-04-27T17:58:53.642Z,3.35
2018-04-27T18:01:20.262Z,5.78
2018-04-27T18:03:47.000Z,4.07
2018-04-27T18:06:13.594Z,3.42
2018-04-27T18:08:40.356Z,3.00
2018-04-27T18:11:06.971Z,2.95
2018-04-27T18:13:33.662Z,4.70
2018-04-27T18:16:00.409Z,3.90
2018-04-27T18:18:28.349Z,4.53
2018-04-27T18:20:56.294Z,3.70
2018-04-27T18:23:30.016Z,2.80
2018-04-27T18:25:56.771Z,2.97
2018-04-27T18:28:23.394Z,4.05
2018-04-27T18:30:50.023Z,2.50
2018-04-27T18:33:16.723Z,3.15
2018-04-27T18:35:43.287Z,2.75
2018-04-27T18:38:09.934Z,3.17
2018-04-27T18:40:37.131Z,2.20
2018-04-27T18:43:03.807Z,2.33
2018-04-27T18:45:30.433Z,2.20
2018-04-27T18:47:57.053Z,2.22
2018-04-27T18:50:25.499Z,2.25
2018-04-27T18:52:52.102Z,2.15
2018-04-27T18:55:18.736Z,2.22
2018-04-27T18:57:45.349Z,2.50
2018-04-27T19:00:12.841Z,2.37
2018-04-27T19:02:39.471Z,2.03
2018-04-27T19:05:06.192Z,1.75
2018-04-27T19:07:32.849Z,2.42
2018-04-27T19:09:59.487Z,2.12
2018-04-27T19:12:26.146Z,2.45
2018-04-27T19:14:53.632Z,2.72
2018-04-27T19:17:20.263Z,1.77
2018-04-27T19:19:46.881Z,2.78
2018-04-27T19:22:13.520Z,1.90
2018-04-27T19:24:41.828Z,1.90
2018-04-27T19:27:08.480Z,2.25
2018-04-27T19:29:35.200Z,2.03
2018-04-27T19:32:01.802Z,2.20
2018-04-27T19:34:28.415Z,2.40
2018-04-27T19:36:55.132Z,2.35
2018-04-27T19:39:21.752Z,2.10
2018-04-27T19:41:48.386Z,2.75
2018-04-27T19:44:15.041Z,2.75
2018-04-27T19:46:41.710Z,2.47
2018-04-27T19:49:08.338Z,2.10
2018-04-27T19:51:34.982Z,2.37
2018-04-27T19:54:01.636Z,2.28
2018-04-27T19:56:28.253Z,2.42
2018-04-27T19:58:54.937Z,2.33
2018-04-27T20:01:21.534Z,2.50
2018-04-27T20:03:48.183Z,2.30
2018-04-27T20:06:14.798Z,2.70
2018-04-27T20:08:41.459Z,2.90
2018-04-27T20:11:08.581Z,3.08
2018-04-27T20:13:35.977Z,2.90
2018-04-27T20:16:02.615Z,3.05
2018-04-27T20:18:30.250Z,2.75
2018-04-27T20:20:56.932Z,3.95
2018-04-27T20:23:24.526Z,3.20
2018-04-27T20:25:51.823Z,3.28
2018-04-27T20:28:19.382Z,2.60
2018-04-27T20:30:46.009Z,4.28
2018-04-27T20:33:12.619Z,3.85
2018-04-27T20:35:39.288Z,3.65
2018-04-27T20:38:06.659Z,2.75
2018-04-27T20:40:33.403Z,2.95
2018-04-27T20:43:06.419Z,3.00
2018-04-27T20:45:36.431Z,3.00
2018-04-27T20:48:03.056Z,3.17
2018-04-27T20:50:29.702Z,3.33
2018-04-27T20:52:56.360Z,2.75
2018-04-27T20:55:23.784Z,3.80
2018-04-27T20:57:50.413Z,4.28
2018-04-27T21:00:17.042Z,3.62
2018-04-27T21:02:46.447Z,3.70
2018-04-27T21:05:13.090Z,3.35
2018-04-27T21:07:39.825Z,3.70
2018-04-27T21:10:06.463Z,4.12
2018-04-27T21:12:33.955Z,3.45
2018-04-27T21:15:00.570Z,4.00
2018-04-27T21:17:27.196Z,3.47
2018-04-27T21:19:53.827Z,3.80
2018-04-27T21:22:21.332Z,4.15
2018-04-27T21:24:48.051Z,3.62
2018-04-27T21:27:14.619Z,4.43
2018-04-27T21:29:41.711Z,3.65
2018-04-27T21:32:08.351Z,3.70
2018-04-27T21:34:34.989Z,3.90
2018-04-27T21:37:01.620Z,4.10
2018-04-27T21:39:30.052Z,4.35
2018-04-27T21:41:56.667Z,3.95
2018-04-27T21:44:29.091Z,4.62
2018-04-27T21:46:58.270Z,4.50
2018-04-27T21:49:25.461Z,4.45
2018-04-27T21:51:56.819Z,4.70
2018-04-27T21:54:23.450Z,4.45
2018-04-27T21:56:51.018Z,4.45
2018-04-27T21:59:17.678Z,4.25
2018-04-27T22:01:44.399Z,4.15
2018-04-27T22:04:10.955Z,4.00
2018-04-27T22:06:37.579Z,4.40
2018-04-27T22:09:05.166Z,3.90
2018-04-27T22:11:37.702Z,4.00
2018-04-27T22:14:04.356Z,3.30
2018-04-27T22:16:31.791Z,4.07
2018-04-27T22:18:58.427Z,3.67
2018-04-27T22:21:25.054Z,4.00
2018-04-27T22:23:57.690Z,4.15
2018-04-27T22:26:24.347Z,4.05
2018-04-27T22:28:50.965Z,3.92
2018-04-27T22:31:17.587Z,3.90
2018-04-27T22:33:44.917Z,4.10
2018-04-27T22:36:16.370Z,3.70
2018-04-27T22:38:46.934Z,4.47
2018-04-27T22:41:13.582Z,4.40
2018-04-27T22:43:41.067Z,3.37
2018-04-27T22:46:17.616Z,3.62
2018-04-27T22:49:01.911Z,4.10
2018-04-27T22:51:29.506Z,4.07
2018-04-27T22:53:58.942Z,3.97
2018-04-27T22:56:29.402Z,4.20
2018-04-27T22:58:56.011Z,4.43
2018-04-27T23:01:22.668Z,3.83
2018-04-27T23:03:49.270Z,4.60
2018-04-27T23:06:15.908Z,4.05
2018-04-27T23:08:42.555Z,4.28
2018-04-27T23:11:12.061Z,3.62
2018-04-27T23:13:48.584Z,4.40
2018-04-27T23:16:16.113Z,3.80
2018-04-27T23:18:43.625Z,3.53
2018-04-27T23:21:29.106Z,4.18
2018-04-27T23:23:55.734Z,4.50
2018-04-27T23:26:22.373Z,3.62
2018-04-27T23:28:48.987Z,3.75
2018-04-27T23:31:15.601Z,3.90
2018-04-27T23:33:42.254Z,4.10
2018-04-27T23:36:08.890Z,4.05
2018-04-27T23:38:35.553Z,3.85
2018-04-27T23:41:02.190Z,3.62
2018-04-27T23:43:28.822Z,4.12
2018-04-27T23:45:55.432Z,3.97
2018-04-27T23:48:22.062Z,3.75
2018-04-27T23:50:49.374Z,4.28
2018-04-27T23:53:15.999Z,3.83
2018-04-27T23:55:42.638Z,4.18
2018-04-27T23:58:17.774Z,3.75
